Time;durP1;ratioP1;P1;durP2;ratioP2;P2;SDS_P1;SDS_P2;PMS_P1;PMS_P2;Temp;Humidity;BMP_temperature;BMP_pressure;BME280_temperature;BME280_humidity;BME280_pressure;Samples;Min_cycle;Max_cycle;Signal;HPM_P1;HPM_P2
2021/05/20 00:02:39;;;;;;;2.88;0.77;;;14.30;68.80;;;;;;5106677;28;27391;-46
2021/05/20 00:05:34;;;;;;;2.30;0.73;;;14.30;69.10;;;;;;5112633;27;27428;-49
2021/05/20 00:08:35;;;;;;;1.13;0.60;;;14.20;69.00;;;;;;5085970;27;27454;-46
2021/05/20 00:11:26;;;;;;;1.08;0.70;;;14.20;69.20;;;;;;5126417;27;27596;-46
2021/05/20 00:14:16;;;;;;;1.83;0.80;;;14.20;69.20;;;;;;5126972;27;27493;-48
2021/05/20 00:17:06;;;;;;;1.52;0.80;;;14.10;69.30;;;;;;5127143;27;27458;-50
2021/05/20 00:19:57;;;;;;;1.20;0.65;;;14.10;69.80;;;;;;5123542;27;27926;-47
2021/05/20 00:22:55;;;;;;;0.73;0.60;;;14.10;69.40;;;;;;5127037;27;27399;-48
2021/05/20 00:25:46;;;;;;;3.28;0.82;;;14.00;69.20;;;;;;5127099;27;27472;-50
2021/05/20 00:29:07;;;;;;;1.55;0.90;;;14.00;69.00;;;;;;5126992;27;27544;-51
2021/05/20 00:32:05;;;;;;;3.17;0.80;;;14.00;69.10;;;;;;5126667;27;27370;-48
2021/05/20 00:35:01;;;;;;;1.10;0.75;;;13.90;69.10;;;;;;5126584;27;27361;-49
2021/05/20 00:37:58;;;;;;;1.95;0.88;;;13.90;69.00;;;;;;5126521;27;27403;-49
2021/05/20 00:40:52;;;;;;;1.48;0.70;;;13.80;68.90;;;;;;5126480;27;27449;-46
2021/05/20 00:43:50;;;;;;;1.98;1.17;;;13.80;68.60;;;;;;5111295;27;27504;-50
2021/05/20 00:46:40;;;;;;;3.22;0.93;;;13.70;68.60;;;;;;5123142;27;27586;-51
2021/05/20 00:49:38;;;;;;;1.50;0.85;;;13.70;69.00;;;;;;5107980;27;27308;-48
2021/05/20 00:52:31;;;;;;;1.92;0.82;;;13.60;68.90;;;;;;5125656;27;27410;-48
2021/05/20 00:55:23;;;;;;;2.63;1.05;;;13.60;69.20;;;;;;5126271;27;27347;-52
2021/05/20 00:58:20;;;;;;;3.00;0.77;;;13.60;69.90;;;;;;5096939;27;27333;-48
2021/05/20 01:01:12;;;;;;;2.05;0.90;;;13.50;69.50;;;;;;5122911;27;27356;-50
2021/05/20 01:03:57;;;;;;;3.22;0.80;;;13.50;69.30;;;;;;5126177;27;27437;-48
2021/05/20 01:06:47;;;;;;;2.38;0.98;;;13.40;68.90;;;;;;5124999;27;27865;-48
2021/05/20 01:09:39;;;;;;;1.02;0.68;;;13.40;69.00;;;;;;5110854;27;27444;-50
2021/05/20 01:12:30;;;;;;;1.52;0.90;;;13.40;69.20;;;;;;5126115;27;27391;-48
2021/05/20 01:15:23;;;;;;;1.13;0.70;;;13.30;69.30;;;;;;5107564;27;27443;-50
2021/05/20 01:18:15;;;;;;;1.85;1.17;;;13.30;68.60;;;;;;5126201;27;27482;-48
2021/05/20 01:21:13;;;;;;;2.35;1.00;;;13.20;68.60;;;;;;5126002;27;27394;-50
2021/05/20 01:24:07;;;;;;;2.88;1.05;;;13.20;68.80;;;;;;5122662;27;27450;-52
2021/05/20 01:27:13;;;;;;;1.92;1.08;;;13.20;68.70;;;;;;5125724;27;27493;-50
2021/05/20 01:30:26;;;;;;;6.13;1.20;;;13.10;68.90;;;;;;5125368;27;27458;-51
2021/05/20 01:33:22;;;;;;;4.60;0.98;;;13.10;69.40;;;;;;5124928;27;27974;-51
2021/05/20 01:36:34;;;;;;;3.55;0.90;;;13.00;69.50;;;;;;5122162;27;27458;-52
2021/05/20 01:39:31;;;;;;;4.78;1.00;;;13.00;69.20;;;;;;5125798;27;27375;-51
2021/05/20 01:42:43;;;;;;;1.42;0.95;;;13.00;69.30;;;;;;5122394;27;27822;-48
2021/05/20 01:45:41;;;;;;;1.33;1.00;;;12.90;70.30;;;;;;5125143;27;27424;-49
2021/05/20 01:48:40;;;;;;;1.05;0.77;;;12.90;70.50;;;;;;5122236;27;27451;-51
2021/05/20 01:51:31;;;;;;;1.13;0.95;;;12.80;70.30;;;;;;5125168;27;27478;-52
2021/05/20 01:54:28;;;;;;;0.57;0.57;;;12.80;71.20;;;;;;5125572;27;27348;-50
2021/05/20 01:57:40;;;;;;;1.45;0.98;;;12.80;70.90;;;;;;5125284;27;27473;-48
2021/05/20 02:00:34;;;;;;;0.60;0.60;;;12.80;70.90;;;;;;5124794;27;27406;-47
2021/05/20 02:03:24;;;;;;;0.80;0.80;;;12.80;71.20;;;;;;5081725;27;27492;-50
2021/05/20 02:06:32;;;;;;;0.80;0.75;;;12.80;71.10;;;;;;5123802;27;27419;-46
2021/05/20 02:09:32;;;;;;;4.32;0.90;;;12.80;71.90;;;;;;5121820;27;27403;-46
2021/05/20 02:12:30;;;;;;;0.77;0.55;;;12.70;71.20;;;;;;5121534;27;27344;-47
2021/05/20 02:15:37;;;;;;;2.05;1.15;;;12.70;71.50;;;;;;5125258;27;27392;-46
2021/05/20 02:18:35;;;;;;;3.35;0.90;;;12.70;71.50;;;;;;5124723;27;27844;-50
2021/05/20 02:21:31;;;;;;;1.23;0.85;;;12.70;71.40;;;;;;5124854;27;27474;-51
2021/05/20 02:24:43;;;;;;;1.63;0.85;;;12.70;71.60;;;;;;5125210;27;27380;-48
2021/05/20 02:27:39;;;;;;;1.05;0.70;;;12.70;71.60;;;;;;5124481;27;27369;-47
2021/05/20 02:30:37;;;;;;;1.77;0.80;;;12.70;71.80;;;;;;5105889;27;27403;-48
2021/05/20 02:33:35;;;;;;;1.35;0.77;;;12.70;71.70;;;;;;5082864;27;27523;-49
2021/05/20 02:36:31;;;;;;;2.33;0.70;;;12.60;71.60;;;;;;5124948;27;27414;-49
2021/05/20 02:39:44;;;;;;;4.28;0.93;;;12.60;71.60;;;;;;5124846;27;27441;-47
2021/05/20 02:42:36;;;;;;;4.90;0.95;;;12.60;71.60;;;;;;5121537;27;27454;-47
2021/05/20 02:45:27;;;;;;;2.03;0.70;;;12.60;71.90;;;;;;5124511;27;27472;-50
2021/05/20 02:48:19;;;;;;;3.10;0.80;;;12.60;71.90;;;;;;5121403;27;27413;-47
2021/05/20 02:51:18;;;;;;;0.70;0.70;;;12.60;72.30;;;;;;5124424;27;27423;-51
2021/05/20 02:54:24;;;;;;;3.92;0.80;;;12.50;72.10;;;;;;5124221;27;27360;-49
2021/05/20 02:57:21;;;;;;;0.98;0.90;;;12.50;72.20;;;;;;5124243;27;27404;-51
2021/05/20 03:00:36;;;;;;;1.75;0.77;;;12.50;72.10;;;;;;5121119;27;27462;-47
2021/05/20 03:03:34;;;;;;;0.73;0.55;;;12.50;71.80;;;;;;5105488;27;27480;-52
2021/05/20 03:06:29;;;;;;;1.83;0.68;;;12.50;72.10;;;;;;5122275;27;27420;-53
2021/05/20 03:09:15;;;;;;;1.20;0.88;;;12.50;72.40;;;;;;5124174;27;27407;-47
2021/05/20 03:12:20;;;;;;;1.05;0.60;;;12.50;72.50;;;;;;5108923;27;27482;-52
2021/05/20 03:15:17;;;;;;;1.00;0.70;;;12.50;72.50;;;;;;5123423;27;27450;-46
2021/05/20 03:18:08;;;;;;;1.33;0.80;;;12.40;72.80;;;;;;5124340;27;27368;-47
2021/05/20 03:20:58;;;;;;;2.88;0.90;;;12.40;72.80;;;;;;5124297;27;27447;-49
2021/05/20 03:24:10;;;;;;;3.40;0.55;;;12.40;72.70;;;;;;5121040;27;27444;-50
2021/05/20 03:27:31;;;;;;;1.70;0.80;;;12.40;74.10;;;;;;5123279;27;27402;-47
2021/05/20 03:30:37;;;;;;;1.00;0.90;;;12.40;73.60;;;;;;5123915;27;27351;-52
2021/05/20 03:33:33;;;;;;;1.17;0.75;;;12.40;73.50;;;;;;5123560;27;27445;-48
2021/05/20 03:36:24;;;;;;;1.42;0.88;;;12.40;73.60;;;;;;5120558;27;27439;-51
2021/05/20 03:39:15;;;;;;;0.90;0.73;;;12.40;73.80;;;;;;5123924;27;27370;-47
2021/05/20 03:42:07;;;;;;;1.67;0.73;;;12.40;74.00;;;;;;5124057;27;27446;-47
2021/05/20 03:44:58;;;;;;;3.42;1.15;;;12.40;74.00;;;;;;5105343;27;27485;-51
2021/05/20 03:47:48;;;;;;;2.65;1.00;;;12.40;73.90;;;;;;5124049;27;27396;-51
2021/05/20 03:50:41;;;;;;;2.97;1.00;;;12.40;74.30;;;;;;5123347;27;27421;-46
2021/05/20 03:53:36;;;;;;;1.50;1.20;;;12.40;74.30;;;;;;5095091;27;27572;-46
2021/05/20 03:56:26;;;;;;;0.60;0.60;;;12.40;74.60;;;;;;5123630;27;27407;-49
2021/05/20 03:59:17;;;;;;;1.42;0.85;;;12.50;74.30;;;;;;5108343;27;27436;-50
2021/05/20 04:02:08;;;;;;;1.13;0.80;;;12.40;74.20;;;;;;5123756;27;27411;-51
2021/05/20 04:05:08;;;;;;;2.55;0.93;;;12.50;74.70;;;;;;5120213;27;27324;-48
2021/05/20 04:07:58;;;;;;;4.50;1.13;;;12.50;74.50;;;;;;5123465;27;27469;-48
2021/05/20 04:10:49;;;;;;;1.25;1.05;;;12.50;74.30;;;;;;5123390;27;27348;-48
2021/05/20 04:13:39;;;;;;;1.15;0.82;;;12.50;74.40;;;;;;5104568;27;27414;-46
2021/05/20 04:16:29;;;;;;;2.03;1.20;;;12.50;74.70;;;;;;5122838;27;27414;-53
2021/05/20 04:19:20;;;;;;;2.92;1.70;;;12.50;74.70;;;;;;5123302;27;27435;-49
2021/05/20 04:22:11;;;;;;;4.75;1.40;;;12.50;74.90;;;;;;5123600;27;27359;-51
2021/05/20 04:25:02;;;;;;;3.45;1.42;;;12.50;74.90;;;;;;5104564;27;27444;-48
2021/05/20 04:27:52;;;;;;;2.00;1.23;;;12.50;74.70;;;;;;5105474;27;27425;-52
2021/05/20 04:30:43;;;;;;;1.50;1.25;;;12.60;74.80;;;;;;5126869;27;27392;-46
2021/05/20 04:33:33;;;;;;;1.55;1.15;;;12.60;75.20;;;;;;5107953;27;27403;-51
2021/05/20 04:36:26;;;;;;;2.72;1.30;;;12.60;74.90;;;;;;5126695;27;27375;-52
2021/05/20 04:39:17;;;;;;;1.33;1.10;;;12.70;75.10;;;;;;5126793;27;27915;-51
2021/05/20 04:42:08;;;;;;;2.50;1.15;;;12.70;75.30;;;;;;5126526;27;27513;-48
2021/05/20 04:45:00;;;;;;;1.88;1.10;;;12.80;75.00;;;;;;5126462;27;27349;-51
2021/05/20 04:47:52;;;;;;;2.20;1.48;;;12.80;75.00;;;;;;5097143;27;27452;-51
2021/05/20 04:50:43;;;;;;;3.58;1.45;;;12.80;75.00;;;;;;5126305;27;27423;-53
2021/05/20 04:53:35;;;;;;;1.65;1.02;;;12.80;75.20;;;;;;5126573;27;27379;-49
2021/05/20 04:56:27;;;;;;;4.90;1.30;;;12.80;74.30;;;;;;5126623;27;27332;-51
2021/05/20 04:59:20;;;;;;;1.02;0.80;;;12.80;73.00;;;;;;5096828;27;27467;-53
2021/05/20 05:02:20;;;;;;;4.60;1.27;;;12.80;73.30;;;;;;5096696;27;27516;-48
2021/05/20 05:05:32;;;;;;;1.80;1.33;;;12.80;73.00;;;;;;5122052;27;27639;-48
2021/05/20 05:08:23;;;;;;;1.13;1.02;;;12.80;73.10;;;;;;5126375;27;27478;-47
2021/05/20 05:11:17;;;;;;;4.53;1.23;;;12.80;72.80;;;;;;5126017;27;27313;-51
2021/05/20 05:14:08;;;;;;;3.00;1.20;;;12.80;73.20;;;;;;5122792;27;27335;-51
2021/05/20 05:17:01;;;;;;;0.98;0.70;;;12.90;73.70;;;;;;5126142;27;27602;-50
2021/05/20 05:19:56;;;;;;;1.10;0.85;;;12.90;73.40;;;;;;5125929;27;27423;-50
2021/05/20 05:23:10;;;;;;;3.00;1.92;;;12.90;73.60;;;;;;5126103;27;27485;-49
2021/05/20 05:26:23;;;;;;;1.92;1.40;;;13.00;74.50;;;;;;5126067;27;27333;-50
2021/05/20 05:29:25;;;;;;;2.88;2.38;;;13.00;73.70;;;;;;5125590;27;27466;-52
2021/05/20 05:32:23;;;;;;;2.58;1.05;;;13.00;73.50;;;;;;5125809;27;27409;-50
2021/05/20 05:35:28;;;;;;;1.17;0.90;;;13.10;73.80;;;;;;5125996;27;27409;-51
2021/05/20 05:38:34;;;;;;;0.90;0.88;;;13.10;73.70;;;;;;5109688;27;27895;-49
2021/05/20 05:41:25;;;;;;;1.85;1.08;;;13.20;73.70;;;;;;5125254;27;27362;-53
2021/05/20 05:44:15;;;;;;;3.40;1.55;;;13.20;73.80;;;;;;5125871;27;27423;-51
2021/05/20 05:47:11;;;;;;;1.27;0.98;;;13.30;73.90;;;;;;5125737;27;27340;-49
2021/05/20 05:50:11;;;;;;;1.23;1.08;;;13.40;74.00;;;;;;5125741;27;27332;-48
2021/05/20 05:53:06;;;;;;;8.13;1.17;;;13.40;73.70;;;;;;5125472;27;27493;-47
2021/05/20 05:56:18;;;;;;;1.73;1.00;;;13.50;73.90;;;;;;5125768;27;27466;-47
2021/05/20 05:59:14;;;;;;;1.52;0.90;;;13.60;74.00;;;;;;5125332;27;27355;-49
2021/05/20 06:02:05;;;;;;;0.68;0.63;;;13.70;74.70;;;;;;5125381;27;27430;-50
2021/05/20 06:05:10;;;;;;;0.98;0.73;;;13.80;74.40;;;;;;5125179;27;27349;-49
2021/05/20 06:08:03;;;;;;;0.82;0.70;;;13.80;74.70;;;;;;5124883;27;27332;-48
2021/05/20 06:11:01;;;;;;;1.42;0.70;;;13.90;74.70;;;;;;5125342;27;27316;-51
2021/05/20 06:14:03;;;;;;;0.55;0.52;;;14.00;75.10;;;;;;5125547;27;27381;-46
2021/05/20 06:16:58;;;;;;;0.90;0.60;;;14.10;74.60;;;;;;5125124;27;27320;-53
2021/05/20 06:19:52;;;;;;;0.68;0.60;;;14.10;74.50;;;;;;5125061;27;27430;-47
2021/05/20 06:22:44;;;;;;;1.05;0.70;;;14.20;74.60;;;;;;5107339;27;27401;-49
2021/05/20 06:25:55;;;;;;;1.13;0.50;;;14.30;73.60;;;;;;5126174;27;27820;-52
2021/05/20 06:28:52;;;;;;;1.75;0.75;;;14.40;73.40;;;;;;5126099;27;27336;-47
2021/05/20 06:31:57;;;;;;;0.60;0.50;;;14.50;73.50;;;;;;5126197;27;27525;-51
2021/05/20 06:34:54;;;;;;;0.95;0.52;;;14.60;72.60;;;;;;5125329;27;27548;-52
2021/05/20 06:37:45;;;;;;;0.60;0.40;;;14.80;72.60;;;;;;5125959;27;27421;-52
2021/05/20 06:40:36;;;;;;;0.93;0.57;;;14.80;73.10;;;;;;5110392;27;27341;-49
2021/05/20 06:43:47;;;;;;;0.70;0.50;;;14.90;73.40;;;;;;5125917;27;27446;-53
2021/05/20 06:46:42;;;;;;;2.78;0.52;;;15.20;72.70;;;;;;5122492;27;27474;-52
2021/05/20 06:49:33;;;;;;;0.60;0.60;;;15.40;71.80;;;;;;5125675;27;27464;-49
2021/05/20 06:52:27;;;;;;;0.95;0.63;;;15.50;71.90;;;;;;5124843;27;27502;-48
2021/05/20 06:55:38;;;;;;;0.63;0.63;;;15.70;71.10;;;;;;5125733;27;27490;-47
2021/05/20 07:02:08;;;;;;;1.15;0.70;;;15.70;70.50;;;;;;5125235;27;27961;-48
2021/05/20 07:04:59;;;;;;;0.30;0.30;;;15.70;71.10;;;;;;5106405;27;27509;-47
2021/05/20 07:07:50;;;;;;;1.95;0.60;;;16.20;71.40;;;;;;5125508;27;27389;-45
2021/05/20 07:10:44;;;;;;;0.80;0.50;;;16.80;70.20;;;;;;5125089;27;27419;-47
2021/05/20 07:13:34;;;;;;;0.77;0.50;;;17.10;68.70;;;;;;5081959;28;27605;-49
2021/05/20 07:16:33;;;;;;;0.80;0.40;;;17.20;68.80;;;;;;5082162;28;27435;-46
2021/05/20 07:19:23;;;;;;;1.95;0.63;;;17.20;69.50;;;;;;5082750;28;27464;-50
2021/05/20 07:22:29;;;;;;;0.73;0.45;;;17.30;69.10;;;;;;5082084;28;27531;-50
2021/05/20 07:25:39;;;;;;;0.50;0.43;;;17.30;70.00;;;;;;5079292;28;27427;-47
2021/05/20 07:28:45;;;;;;;1.65;0.60;;;17.20;70.40;;;;;;5082341;28;27539;-49
2021/05/20 07:31:58;;;;;;;2.60;0.40;;;16.90;70.70;;;;;;5067439;28;27534;-45
2021/05/20 07:35:30;;;;;;;2.60;0.50;;;16.80;71.30;;;;;;5082116;28;27119;-47
2021/05/20 07:38:40;;;;;;;0.38;0.38;;;16.50;71.40;;;;;;5082229;28;27472;-46
2021/05/20 07:41:31;;;;;;;0.32;0.32;;;16.70;71.00;;;;;;5081689;28;27621;-49
2021/05/20 07:44:28;;;;;;;0.60;0.47;;;17.10;70.80;;;;;;5104667;27;27321;-48
2021/05/20 07:47:24;;;;;;;0.40;0.40;;;17.20;70.60;;;;;;5124842;27;27441;-45
2021/05/20 07:50:36;;;;;;;1.45;0.57;;;17.20;70.10;;;;;;5124675;27;27475;-49
2021/05/20 07:53:31;;;;;;;0.30;0.30;;;17.10;70.20;;;;;;5124902;27;27340;-48
2021/05/20 07:56:36;;;;;;;1.25;0.50;;;17.10;70.40;;;;;;5124044;27;27399;-51
2021/05/20 07:59:34;;;;;;;0.43;0.43;;;17.30;68.70;;;;;;5124592;27;27314;-52
2021/05/20 08:09:30;;;;;;;0.35;0.32;;;19.90;63.90;;;;;;5106527;27;27460;-51
2021/05/20 08:12:21;;;;;;;0.45;0.40;;;21.10;62.20;;;;;;5128079;27;27482;-49
2021/05/20 08:15:31;;;;;;;0.65;0.50;;;21.10;59.80;;;;;;5124700;27;27378;-48
2021/05/20 08:18:29;;;;;;;0.40;0.30;;;20.80;61.20;;;;;;5112316;27;27484;-51
2021/05/20 08:21:27;;;;;;;0.40;0.30;;;20.40;64.70;;;;;;5128242;27;27325;-49
2021/05/20 08:24:24;;;;;;;0.30;0.30;;;20.00;63.70;;;;;;5112326;27;27325;-46
2021/05/20 08:27:33;;;;;;;2.92;0.45;;;19.70;64.50;;;;;;5127754;27;27491;-51
2021/05/20 08:30:31;;;;;;;0.50;0.40;;;19.40;63.50;;;;;;5127484;27;27387;-50
2021/05/20 08:33:37;;;;;;;1.33;0.45;;;19.30;64.70;;;;;;5128007;27;27434;-49
2021/05/20 08:37:04;;;;;;;0.30;0.30;;;19.20;65.80;;;;;;5127606;27;27439;-49
2021/05/20 08:40:27;;;;;;;0.45;0.45;;;19.30;66.40;;;;;;5087608;27;27956;-51
2021/05/20 08:43:24;;;;;;;1.48;0.50;;;19.50;65.80;;;;;;5127433;27;27390;-51
2021/05/20 08:46:32;;;;;;;0.60;0.40;;;19.60;64.70;;;;;;5124282;27;27502;-51
2021/05/20 08:49:40;;;;;;;0.40;0.40;;;19.90;65.40;;;;;;5094501;27;27319;-54
2021/05/20 08:53:06;;;;;;;0.40;0.40;;;20.50;64.80;;;;;;5111237;27;27861;-53
2021/05/20 08:56:04;;;;;;;1.75;0.38;;;21.40;63.20;;;;;;5126993;27;27359;-52
2021/05/20 08:59:05;;;;;;;1.73;0.40;;;22.40;58.60;;;;;;5127647;27;27420;-53
2021/05/20 09:02:21;;;;;;;1.10;0.60;;;23.30;58.90;;;;;;5127332;27;27433;-49
2021/05/20 09:05:29;;;;;;;0.43;0.40;;;24.20;57.60;;;;;;5126795;27;27573;-52
2021/05/20 09:08:46;;;;;;;0.68;0.60;;;24.40;57.20;;;;;;5126850;27;27508;-48
2021/05/20 09:11:55;;;;;;;0.40;0.40;;;23.80;54.00;;;;;;5127251;27;27411;-47
2021/05/20 09:14:48;;;;;;;0.47;0.38;;;23.10;57.10;;;;;;5126651;27;27320;-48
2021/05/20 09:18:14;;;;;;;1.33;0.50;;;22.40;56.40;;;;;;5124613;27;27730;-47
2021/05/20 09:21:06;;;;;;;1.55;0.40;;;21.60;55.60;;;;;;5126889;27;27360;-51
2021/05/20 09:23:59;;;;;;;0.32;0.32;;;21.10;57.10;;;;;;5126974;27;27412;-48
2021/05/20 09:27:37;;;;;;;1.00;0.30;;;20.60;60.30;;;;;;5126848;27;26933;-47
2021/05/20 09:30:27;;;;;;;0.82;0.40;;;20.10;63.40;;;;;;5126380;27;27431;-47
2021/05/20 09:33:57;;;;;;;0.50;0.50;;;19.80;65.00;;;;;;5123442;27;27308;-46
2021/05/20 09:37:36;;;;;;;2.55;0.75;;;19.60;64.20;;;;;;5126700;27;27336;-48
2021/05/20 09:40:55;;;;;;;1.92;0.57;;;19.50;65.60;;;;;;5107934;27;27305;-49
2021/05/20 09:44:04;;;;;;;0.70;0.50;;;19.50;66.10;;;;;;5126255;27;27424;-48
2021/05/20 09:47:12;;;;;;;0.47;0.47;;;19.70;65.10;;;;;;5095380;27;27428;-46
2021/05/20 09:50:49;;;;;;;0.88;0.70;;;19.70;64.60;;;;;;5126012;27;27449;-52
2021/05/20 09:54:04;;;;;;;2.10;1.63;;;19.70;63.90;;;;;;5125225;27;27465;-49
2021/05/20 09:57:24;;;;;;;0.70;0.50;;;19.60;63.20;;;;;;5126185;27;27407;-46
2021/05/20 10:00:25;;;;;;;0.50;0.40;;;19.40;63.60;;;;;;5126554;27;27418;-51
2021/05/20 10:03:35;;;;;;;0.40;0.40;;;19.20;65.70;;;;;;5126631;27;27423;-50
2021/05/20 10:06:57;;;;;;;0.70;0.55;;;19.10;65.40;;;;;;5125619;27;27408;-50
2021/05/20 10:10:03;;;;;;;1.95;0.40;;;19.10;65.60;;;;;;5122515;27;27450;-49
2021/05/20 10:13:05;;;;;;;0.43;0.43;;;19.00;65.00;;;;;;5125416;27;27446;-47
2021/05/20 10:16:12;;;;;;;1.30;0.35;;;19.10;65.30;;;;;;5086466;27;27419;-51
2021/05/20 10:19:08;;;;;;;1.73;0.38;;;19.20;64.90;;;;;;5110015;27;27514;-51
2021/05/20 10:22:20;;;;;;;0.88;0.75;;;19.20;63.80;;;;;;5125928;27;27395;-49
2021/05/20 10:25:32;;;;;;;0.55;0.30;;;19.20;64.60;;;;;;5123733;27;27528;-50
2021/05/20 10:28:39;;;;;;;0.43;0.43;;;19.20;62.70;;;;;;5122658;27;27526;-49
2021/05/20 10:31:45;;;;;;;0.50;0.50;;;19.60;62.50;;;;;;5110330;27;27416;-50
2021/05/20 10:34:56;;;;;;;4.40;0.70;;;20.10;63.80;;;;;;5125860;27;27431;-52
2021/05/20 10:38:07;;;;;;;1.48;0.60;;;20.80;57.60;;;;;;5125367;27;27563;-53
2021/05/20 10:41:44;;;;;;;1.30;0.75;;;21.60;54.10;;;;;;5107936;27;27423;-51
2021/05/20 10:45:33;;;;;;;0.98;0.85;;;22.30;49.90;;;;;;5125457;27;27561;-52
2021/05/20 10:48:52;;;;;;;0.93;0.73;;;22.90;52.50;;;;;;5125496;27;27369;-52
2021/05/20 10:51:40;;;;;;;0.60;0.60;;;22.70;51.60;;;;;;5125328;27;27463;-51
2021/05/20 10:54:30;;;;;;;0.90;0.60;;;22.40;54.00;;;;;;5095977;27;27369;-50
2021/05/20 10:57:56;;;;;;;1.55;0.50;;;22.50;58.90;;;;;;5109700;27;27467;-52
2021/05/20 11:01:03;;;;;;;0.50;0.50;;;22.70;60.80;;;;;;5109933;27;27490;-53
2021/05/20 11:03:54;;;;;;;0.30;0.22;;;22.80;57.40;;;;;;5124463;27;27392;-52
2021/05/20 11:06:43;;;;;;;3.83;1.10;;;22.70;56.90;;;;;;5124573;27;27473;-52
2021/05/20 11:10:32;;;;;;;1.20;0.73;;;22.50;57.10;;;;;;5125085;27;27656;-49
2021/05/20 11:13:46;;;;;;;0.73;0.60;;;22.20;56.20;;;;;;5109244;27;27851;-51
2021/05/20 11:16:33;;;;;;;1.33;0.60;;;21.70;56.30;;;;;;5125196;27;27503;-52
2021/05/20 11:19:25;;;;;;;0.45;0.45;;;21.40;56.90;;;;;;5125448;27;27430;-53
2021/05/20 11:22:20;;;;;;;0.60;0.50;;;21.20;57.60;;;;;;5125071;27;27407;-50
2021/05/20 11:25:14;;;;;;;0.85;0.80;;;20.90;57.40;;;;;;5125293;27;27373;-50
2021/05/20 11:28:07;;;;;;;2.08;0.70;;;20.60;58.50;;;;;;5109826;27;27588;-52
2021/05/20 11:31:03;;;;;;;1.55;0.80;;;20.40;60.70;;;;;;5124957;27;27455;-47
2021/05/20 11:37:23;;;;;;;1.20;0.77;;;20.20;60.70;;;;;;5125967;27;27393;-48
2021/05/20 11:40:31;;;;;;;0.73;0.60;;;20.10;60.00;;;;;;5109852;27;27512;-48
2021/05/20 11:43:26;;;;;;;0.52;0.52;;;20.10;61.40;;;;;;5128531;27;27309;-50
2021/05/20 11:46:30;;;;;;;1.38;0.40;;;20.10;63.90;;;;;;5128469;27;27395;-52
2021/05/20 11:49:46;;;;;;;1.60;0.55;;;20.00;61.90;;;;;;5128638;27;27336;-47
2021/05/20 11:52:52;;;;;;;0.60;0.50;;;20.00;62.00;;;;;;5128156;27;27348;-47
2021/05/20 11:55:45;;;;;;;0.52;0.47;;;20.00;62.20;;;;;;5112495;27;27427;-47
2021/05/20 11:58:52;;;;;;;1.95;0.50;;;20.00;61.50;;;;;;5128578;27;27336;-51
2021/05/20 12:01:49;;;;;;;0.50;0.50;;;20.10;62.10;;;;;;5127684;27;27969;-50
2021/05/20 12:05:28;;;;;;;1.20;0.57;;;20.40;62.40;;;;;;5124557;27;27411;-51
2021/05/20 12:09:00;;;;;;;4.40;0.80;;;20.70;63.00;;;;;;5087449;28;27413;-48
2021/05/20 12:11:51;;;;;;;0.80;0.38;;;21.00;62.50;;;;;;5086826;28;27606;-47
2021/05/20 12:14:44;;;;;;;1.38;0.60;;;21.10;61.50;;;;;;5083046;28;27911;-52
2021/05/20 12:17:51;;;;;;;1.30;0.52;;;21.10;59.80;;;;;;5086283;28;27395;-48
2021/05/20 12:20:43;;;;;;;0.30;0.30;;;21.00;59.50;;;;;;5086968;28;27457;-48
2021/05/20 12:23:55;;;;;;;0.40;0.40;;;20.90;59.00;;;;;;5086881;28;27381;-52
2021/05/20 12:27:06;;;;;;;0.98;0.40;;;20.90;58.50;;;;;;5086493;28;27557;-48
2021/05/20 12:30:34;;;;;;;0.52;0.35;;;20.80;58.60;;;;;;5086371;28;27386;-48
2021/05/20 12:33:36;;;;;;;2.05;0.40;;;20.80;59.30;;;;;;5087065;28;27468;-51
2021/05/20 12:37:13;;;;;;;0.55;0.32;;;20.90;59.60;;;;;;5087100;28;27315;-48
2021/05/20 12:40:15;;;;;;;0.75;0.40;;;21.20;61.50;;;;;;5086770;28;27868;-48
2021/05/20 12:43:24;;;;;;;0.40;0.40;;;21.60;64.20;;;;;;5086504;28;27401;-47
2021/05/20 12:46:19;;;;;;;0.68;0.43;;;22.00;66.40;;;;;;5086852;28;27481;-49
2021/05/20 12:49:18;;;;;;;0.38;0.38;;;22.30;65.00;;;;;;5085201;28;27511;-51
2021/05/20 12:52:16;;;;;;;0.20;0.20;;;22.50;63.60;;;;;;5082432;28;27320;-47
2021/05/20 12:55:35;;;;;;;0.30;0.30;;;22.60;64.80;;;;;;5086354;28;27324;-50
2021/05/20 12:58:26;;;;;;;0.10;0.10;;;22.70;64.00;;;;;;5085236;28;27473;-51
2021/05/20 13:01:26;;;;;;;0.22;0.20;;;22.80;63.60;;;;;;5086669;28;27389;-52
2021/05/20 13:04:12;;;;;;;0.20;0.20;;;22.80;62.80;;;;;;5086522;28;27829;-50
2021/05/20 13:07:39;;;;;;;0.30;0.30;;;22.80;65.40;;;;;;5119908;27;27516;-54
2021/05/20 13:10:48;;;;;;;0.30;0.30;;;22.70;65.70;;;;;;5126429;27;27569;-51
2021/05/20 13:13:48;;;;;;;0.30;0.30;;;22.80;66.60;;;;;;5127363;27;27428;-49
2021/05/20 13:16:52;;;;;;;0.43;0.30;;;22.80;65.40;;;;;;5127365;27;27856;-51
2021/05/20 13:22:11;;;;;;;1.70;0.80;;;22.90;64.10;;;;;;5127291;27;27394;-52
2021/05/20 13:23:30;;;;;;;0.43;0.22;;;23.00;66.90;;;;;;5126534;27;27354;-52
2021/05/20 13:26:36;;;;;;;0.93;0.40;;;23.10;65.70;;;;;;5126472;27;27556;-54
2021/05/20 13:29:37;;;;;;;0.55;0.45;;;23.20;66.90;;;;;;5126208;27;27426;-48
2021/05/20 13:32:56;;;;;;;0.32;0.30;;;23.40;65.80;;;;;;5126740;27;27421;-52
2021/05/20 13:35:49;;;;;;;2.28;0.43;;;23.50;66.10;;;;;;5126851;27;27469;-54
2021/05/20 13:38:55;;;;;;;4.28;0.90;;;23.50;64.80;;;;;;5126872;27;27403;-52
2021/05/20 13:41:45;;;;;;;1.15;0.30;;;23.60;65.10;;;;;;5110325;27;27970;-51
2021/05/20 13:44:53;;;;;;;0.20;0.20;;;23.70;63.80;;;;;;5126837;27;27363;-51
2021/05/20 13:47:46;;;;;;;0.30;0.30;;;23.80;63.30;;;;;;5126918;27;27502;-53
2021/05/20 13:51:34;;;;;;;1.60;0.20;;;23.90;64.40;;;;;;5110575;27;27395;-54
2021/05/20 13:54:41;;;;;;;1.05;0.35;;;24.00;65.20;;;;;;5125507;27;27881;-54
2021/05/20 13:57:37;;;;;;;1.10;0.40;;;24.10;63.70;;;;;;5125989;27;27455;-51
2021/05/20 14:00:45;;;;;;;1.98;0.38;;;24.20;61.20;;;;;;5125403;27;27497;-52
2021/05/20 14:04:02;;;;;;;0.30;0.30;;;24.10;61.20;;;;;;5126568;27;27327;-54
2021/05/20 14:07:17;;;;;;;0.52;0.40;;;24.20;60.70;;;;;;5125292;27;27710;-54
2021/05/20 14:10:23;;;;;;;0.43;0.40;;;24.10;60.00;;;;;;5063242;28;27377;-54
2021/05/20 14:13:15;;;;;;;1.20;0.35;;;24.10;60.60;;;;;;5062478;28;27547;-50
2021/05/20 14:16:22;;;;;;;1.73;0.32;;;24.00;60.00;;;;;;5061631;28;27364;-48
2021/05/20 14:19:35;;;;;;;1.55;0.45;;;24.00;58.70;;;;;;5062761;28;27434;-49
2021/05/20 14:22:33;;;;;;;0.75;0.50;;;24.10;54.60;;;;;;5062316;28;27423;-47
2021/05/20 14:25:41;;;;;;;0.77;0.32;;;24.00;55.40;;;;;;5063127;28;27538;-53
2021/05/20 14:28:33;;;;;;;1.15;0.45;;;23.90;55.90;;;;;;5063301;28;27433;-47
2021/05/20 14:31:29;;;;;;;0.40;0.35;;;23.80;56.30;;;;;;5062727;28;27494;-52
2021/05/20 14:34:54;;;;;;;0.45;0.40;;;23.70;55.90;;;;;;5062859;28;27535;-48
2021/05/20 14:37:45;;;;;;;3.08;0.43;;;23.50;55.70;;;;;;5047414;28;27469;-49
2021/05/20 14:40:35;;;;;;;0.57;0.50;;;23.40;56.10;;;;;;5063115;28;27372;-47
2021/05/20 14:43:32;;;;;;;0.50;0.50;;;23.30;55.50;;;;;;5062952;28;27481;-49
2021/05/20 14:46:23;;;;;;;1.40;0.90;;;23.20;56.80;;;;;;5048593;28;27677;-48
2021/05/20 14:53:11;;;;;;;0.40;0.40;;;23.50;57.70;;;;;;5072794;27;27516;-50
2021/05/20 14:56:08;;;;;;;1.15;0.40;;;23.60;57.30;;;;;;5125197;27;28245;-50
2021/05/20 15:05:01;;;;;;;1.60;0.70;;;23.70;57.60;;;;;;5125706;27;27446;-48
2021/05/20 15:06:27;;;;;;;3.15;0.47;;;23.70;57.30;;;;;;5123163;27;27682;-52
2021/05/20 15:12:39;;;;;;;0.75;0.43;;;23.70;57.20;;;;;;5105946;27;27396;-48
2021/05/20 15:15:37;;;;;;;0.73;0.68;;;23.60;55.40;;;;;;5124758;27;27437;-49
2021/05/20 15:18:34;;;;;;;2.60;0.93;;;23.50;56.40;;;;;;5125197;27;27317;-49
2021/05/20 15:21:28;;;;;;;2.08;0.65;;;23.50;57.30;;;;;;5125112;27;27477;-49
2021/05/20 15:24:22;;;;;;;1.67;0.60;;;23.40;55.90;;;;;;5083092;27;27522;-52
2021/05/20 15:27:29;;;;;;;0.90;0.43;;;23.30;56.10;;;;;;5125091;27;27405;-48
2021/05/20 15:30:57;;;;;;;1.08;0.60;;;23.30;57.30;;;;;;5124405;27;27503;-49
2021/05/20 15:34:04;;;;;;;0.68;0.60;;;23.20;56.90;;;;;;5108493;27;27963;-50
2021/05/20 15:36:57;;;;;;;2.53;0.75;;;23.10;55.80;;;;;;5124718;27;27353;-52
2021/05/20 15:40:05;;;;;;;1.23;0.60;;;23.00;56.40;;;;;;5124579;27;27957;-50
2021/05/20 15:43:12;;;;;;;0.57;0.52;;;22.90;57.00;;;;;;5124872;27;27422;-48
2021/05/20 15:46:20;;;;;;;0.65;0.50;;;22.90;57.00;;;;;;5108112;27;27953;-49
2021/05/20 15:53:07;;;;;;;1.38;0.43;;;22.70;56.50;;;;;;5121520;27;27474;-49
2021/05/20 15:55:59;;;;;;;1.05;0.65;;;22.70;56.00;;;;;;5124692;27;27455;-49
2021/05/20 15:59:05;;;;;;;2.38;0.60;;;22.60;55.20;;;;;;5124641;27;27433;-52
2021/05/20 16:02:29;;;;;;;0.50;0.50;;;22.60;55.80;;;;;;5121253;27;27417;-49
2021/05/20 16:05:35;;;;;;;3.83;0.50;;;22.50;55.50;;;;;;5123814;27;27340;-52
2021/05/20 16:08:54;;;;;;;0.55;0.40;;;22.40;53.70;;;;;;5108604;27;27337;-51
2021/05/20 16:12:12;;;;;;;0.85;0.60;;;22.30;55.00;;;;;;5123837;27;27627;-52
2021/05/20 16:15:21;;;;;;;2.85;0.57;;;22.20;55.90;;;;;;5124673;27;27615;-53
2021/05/20 16:18:48;;;;;;;1.08;0.50;;;22.10;55.50;;;;;;5108968;27;27360;-49